Time;durP1;ratioP1;P1;durP2;ratioP2;P2;SDS_P1;SDS_P2;PMS_P1;PMS_P2;Temp;Humidity;BMP_temperature;BMP_pressure;BME280_temperature;BME280_humidity;BME280_pressure;Samples;Min_cycle;Max_cycle;Signal;HPM_P1;HPM_P2
2021/06/11 00:02:10;;;;;;;6.32;5.75;;;;;;;;;;5084094;28;20392;-84
2021/06/11 00:04:37;;;;;;;6.05;5.47;;;;;;;;;;5085357;28;20717;-82
2021/06/11 00:07:04;;;;;;;6.35;5.65;;;;;;;;;;5086736;28;20486;-84
2021/06/11 00:09:30;;;;;;;6.30;5.70;;;;;;;;;;5084167;28;20891;-84
2021/06/11 00:11:57;;;;;;;7.13;6.43;;;;;;;;;;5083279;28;20424;-84
2021/06/11 00:14:24;;;;;;;8.60;7.80;;;;;;;;;;5082635;28;20392;-83
2021/06/11 00:16:51;;;;;;;9.15;8.25;;;;;;;;;;5083730;28;20400;-84
2021/06/11 00:19:19;;;;;;;9.02;8.23;;;;;;;;;;5082623;28;20398;-84
2021/06/11 00:21:45;;;;;;;9.68;8.77;;;;;;;;;;5087398;28;20390;-82
2021/06/11 00:24:11;;;;;;;9.45;8.52;;;;;;;;;;5084382;28;20431;-84
2021/06/11 00:26:38;;;;;;;9.77;8.77;;;;;;;;;;5085206;28;20392;-82
2021/06/11 00:29:04;;;;;;;9.77;8.77;;;;;;;;;;5083830;28;20462;-82
2021/06/11 00:31:31;;;;;;;10.13;9.13;;;;;;;;;;5082533;28;20420;-84
2021/06/11 00:33:57;;;;;;;11.80;9.30;;;;;;;;;;5083257;28;20457;-84
2021/06/11 00:36:25;;;;;;;10.55;9.45;;;;;;;;;;5084756;28;20453;-84
2021/06/11 00:38:51;;;;;;;10.63;9.50;;;;;;;;;;5085824;28;20869;-82
2021/06/11 00:41:18;;;;;;;11.13;10.02;;;;;;;;;;5086969;28;20496;-84
2021/06/11 00:43:44;;;;;;;11.77;10.45;;;;;;;;;;5085231;28;20388;-82
2021/06/11 00:46:12;;;;;;;11.30;10.23;;;;;;;;;;5088289;28;20455;-84
2021/06/11 00:48:38;;;;;;;9.35;8.45;;;;;;;;;;5087374;28;20416;-83
2021/06/11 00:51:05;;;;;;;9.80;8.90;;;;;;;;;;5088703;28;20915;-84
2021/06/11 00:53:33;;;;;;;10.23;9.23;;;;;;;;;;5087646;28;20401;-83
2021/06/11 00:55:59;;;;;;;9.77;8.90;;;;;;;;;;5086962;28;20407;-82
2021/06/11 00:58:26;;;;;;;10.57;9.55;;;;;;;;;;5083956;28;20392;-83
2021/06/11 01:00:52;;;;;;;10.40;9.30;;;;;;;;;;5082736;28;20558;-84
2021/06/11 01:03:18;;;;;;;10.43;9.43;;;;;;;;;;5077117;28;20400;-84
2021/06/11 01:05:45;;;;;;;9.93;8.90;;;;;;;;;;5083542;28;20392;-84
2021/06/11 01:08:14;;;;;;;9.93;8.93;;;;;;;;;;5078686;28;20406;-83
2021/06/11 01:10:44;;;;;;;10.00;9.10;;;;;;;;;;5080640;28;21355;-84
2021/06/11 01:13:13;;;;;;;9.70;8.70;;;;;;;;;;5080566;28;20396;-83
2021/06/11 01:15:40;;;;;;;9.82;8.70;;;;;;;;;;5081762;28;20455;-82
2021/06/11 01:18:06;;;;;;;8.98;8.07;;;;;;;;;;5083621;28;20401;-84
2021/06/11 01:20:33;;;;;;;9.05;8.15;;;;;;;;;;5075511;28;20917;-82
2021/06/11 01:23:45;;;;;;;9.02;8.20;;;;;;;;;;5083035;28;20480;-83
2021/06/11 01:26:21;;;;;;;8.52;7.72;;;;;;;;;;5003896;28;20398;-82
2021/06/11 01:28:49;;;;;;;9.97;8.30;;;;;;;;;;5068913;28;20487;-84
2021/06/11 01:31:18;;;;;;;8.73;7.93;;;;;;;;;;5073304;28;21210;-83
2021/06/11 01:33:47;;;;;;;8.88;7.95;;;;;;;;;;5073664;28;20399;-83
2021/06/11 01:36:18;;;;;;;8.25;7.55;;;;;;;;;;5078679;28;20400;-83
2021/06/11 01:38:49;;;;;;;9.07;8.13;;;;;;;;;;5071729;28;20764;-84
2021/06/11 01:41:19;;;;;;;9.13;8.18;;;;;;;;;;5076541;28;20464;-83
2021/06/11 01:43:48;;;;;;;9.00;8.18;;;;;;;;;;5073935;28;20880;-84
2021/06/11 01:46:17;;;;;;;8.88;8.07;;;;;;;;;;5072496;28;20929;-82
2021/06/11 01:48:46;;;;;;;8.83;7.97;;;;;;;;;;5081343;28;20880;-83
2021/06/11 01:51:14;;;;;;;8.77;7.80;;;;;;;;;;5079478;28;20428;-84
2021/06/11 01:53:43;;;;;;;8.82;8.07;;;;;;;;;;5077576;28;20535;-84
2021/06/11 01:56:12;;;;;;;8.93;8.07;;;;;;;;;;5071950;28;20412;-82
2021/06/11 01:58:41;;;;;;;9.02;8.13;;;;;;;;;;5072917;28;20402;-83
2021/06/11 02:01:09;;;;;;;9.23;8.32;;;;;;;;;;5079027;28;20406;-84
2021/06/11 02:03:37;;;;;;;9.63;8.73;;;;;;;;;;5065189;28;20739;-82
2021/06/11 02:06:05;;;;;;;9.80;8.90;;;;;;;;;;5068945;28;20448;-84
2021/06/11 02:08:32;;;;;;;9.93;9.03;;;;;;;;;;5065803;28;20406;-83
2021/06/11 02:10:59;;;;;;;9.60;8.70;;;;;;;;;;5065117;28;20422;-84
2021/06/11 02:13:27;;;;;;;9.60;8.65;;;;;;;;;;5072877;28;20404;-83
2021/06/11 02:15:56;;;;;;;9.20;8.20;;;;;;;;;;5064543;28;20821;-84
2021/06/11 02:18:23;;;;;;;9.70;7.82;;;;;;;;;;5064814;28;21161;-83
2021/06/11 02:20:52;;;;;;;8.35;7.55;;;;;;;;;;5083039;28;20929;-84
2021/06/11 02:23:19;;;;;;;8.55;7.70;;;;;;;;;;5082223;28;20806;-84
2021/06/11 02:25:45;;;;;;;8.20;7.50;;;;;;;;;;5061653;28;20404;-84
2021/06/11 02:28:16;;;;;;;8.00;7.25;;;;;;;;;;5060360;28;20402;-84
2021/06/11 02:30:42;;;;;;;7.95;7.15;;;;;;;;;;5061241;28;20479;-83
2021/06/11 02:33:11;;;;;;;8.45;7.65;;;;;;;;;;5065995;28;20400;-83
2021/06/11 02:35:38;;;;;;;8.05;7.25;;;;;;;;;;5060905;28;20409;-83
2021/06/11 02:38:04;;;;;;;7.65;6.95;;;;;;;;;;5064658;28;20413;-84
2021/06/11 02:40:31;;;;;;;9.82;7.50;;;;;;;;;;5060974;28;20420;-83
2021/06/11 02:43:03;;;;;;;8.35;7.65;;;;;;;;;;5060859;28;20405;-84
2021/06/11 02:45:33;;;;;;;8.48;7.70;;;;;;;;;;5061315;28;20398;-84
2021/06/11 02:48:07;;;;;;;8.15;7.45;;;;;;;;;;5063645;28;20402;-84
2021/06/11 02:50:37;;;;;;;8.27;7.40;;;;;;;;;;5061702;28;20414;-84
2021/06/11 02:53:06;;;;;;;7.90;7.20;;;;;;;;;;5062392;28;20410;-84
2021/06/11 02:55:35;;;;;;;7.90;7.20;;;;;;;;;;5062326;28;20402;-84
2021/06/11 02:58:06;;;;;;;8.88;7.65;;;;;;;;;;5072157;28;20420;-83
2021/06/11 03:00:34;;;;;;;8.68;7.88;;;;;;;;;;5090810;28;20856;-83
2021/06/11 03:03:04;;;;;;;8.80;8.00;;;;;;;;;;5090219;28;20453;-85
2021/06/11 03:05:32;;;;;;;9.70;8.30;;;;;;;;;;5091163;28;20395;-84
2021/06/11 03:08:06;;;;;;;9.07;8.27;;;;;;;;;;5092003;28;20398;-84
2021/06/11 03:10:33;;;;;;;8.88;7.97;;;;;;;;;;5092343;28;20403;-84
2021/06/11 03:13:01;;;;;;;8.70;7.90;;;;;;;;;;5088776;28;20470;-84
2021/06/11 03:15:31;;;;;;;9.30;8.40;;;;;;;;;;5092002;28;20878;-84
2021/06/11 03:18:02;;;;;;;9.38;8.48;;;;;;;;;;5091237;28;20441;-84
2021/06/11 03:20:33;;;;;;;8.98;8.02;;;;;;;;;;5088940;28;20910;-83
2021/06/11 03:23:04;;;;;;;8.35;7.55;;;;;;;;;;5093069;28;20450;-84
2021/06/11 03:25:34;;;;;;;8.55;7.72;;;;;;;;;;5091825;28;20430;-84
2021/06/11 03:28:05;;;;;;;8.70;7.90;;;;;;;;;;5092126;28;20396;-83
2021/06/11 03:30:33;;;;;;;8.48;7.65;;;;;;;;;;5087244;28;20964;-83
2021/06/11 03:33:04;;;;;;;8.48;7.68;;;;;;;;;;5091666;28;20468;-83
2021/06/11 03:35:35;;;;;;;8.75;7.90;;;;;;;;;;5089480;28;20458;-83
2021/06/11 03:38:07;;;;;;;8.60;7.80;;;;;;;;;;5089967;28;20401;-83
2021/06/11 03:40:40;;;;;;;9.23;8.32;;;;;;;;;;5088569;28;20394;-83
2021/06/11 03:43:09;;;;;;;8.98;7.78;;;;;;;;;;5090282;28;20467;-84
2021/06/11 03:45:36;;;;;;;8.77;7.95;;;;;;;;;;5088465;28;21631;-84
2021/06/11 03:48:06;;;;;;;8.73;7.90;;;;;;;;;;5087537;28;20887;-84
2021/06/11 03:50:33;;;;;;;9.30;8.27;;;;;;;;;;5089219;28;20406;-83
2021/06/11 03:53:01;;;;;;;8.93;8.00;;;;;;;;;;5088650;28;20411;-84
2021/06/11 03:55:33;;;;;;;8.50;7.60;;;;;;;;;;5091761;28;20402;-84
2021/06/11 03:58:04;;;;;;;9.68;8.68;;;;;;;;;;5090631;28;20407;-84
2021/06/11 04:00:32;;;;;;;9.75;8.77;;;;;;;;;;5089784;28;20471;-84
2021/06/11 04:03:00;;;;;;;9.63;8.70;;;;;;;;;;5089558;28;20408;-85
2021/06/11 04:05:27;;;;;;;10.18;8.60;;;;;;;;;;5081773;28;20416;-82
2021/06/11 04:07:54;;;;;;;11.77;9.23;;;;;;;;;;5081616;28;20896;-84
2021/06/11 04:10:26;;;;;;;10.38;9.38;;;;;;;;;;5079765;28;20487;-85
2021/06/11 04:12:56;;;;;;;10.20;9.20;;;;;;;;;;5080694;28;20432;-83
2021/06/11 04:15:25;;;;;;;10.55;9.52;;;;;;;;;;5081127;28;20408;-84
2021/06/11 04:17:56;;;;;;;12.57;9.30;;;;;;;;;;5084256;28;20445;-83
2021/06/11 04:20:25;;;;;;;11.25;10.05;;;;;;;;;;5081847;28;20403;-83
2021/06/11 04:22:54;;;;;;;12.77;9.80;;;;;;;;;;5082660;28;20396;-83
2021/06/11 04:25:22;;;;;;;10.80;9.70;;;;;;;;;;5080633;28;20481;-83
2021/06/11 04:27:53;;;;;;;11.32;10.13;;;;;;;;;;5083040;28;20448;-83
2021/06/11 04:30:22;;;;;;;11.75;10.05;;;;;;;;;;5081987;28;20406;-83
2021/06/11 04:32:48;;;;;;;15.35;10.80;;;;;;;;;;5084772;28;20447;-82
2021/06/11 04:35:20;;;;;;;11.47;10.27;;;;;;;;;;5083796;28;20800;-83
2021/06/11 04:37:46;;;;;;;12.75;10.80;;;;;;;;;;5083919;28;20884;-84
2021/06/11 04:40:13;;;;;;;13.00;11.00;;;;;;;;;;5081207;28;20400;-83
2021/06/11 04:42:40;;;;;;;13.13;11.52;;;;;;;;;;5079395;28;20414;-83
2021/06/11 04:45:08;;;;;;;14.57;11.27;;;;;;;;;;5082581;28;20929;-84
2021/06/11 04:47:35;;;;;;;15.15;11.68;;;;;;;;;;5080485;28;20403;-82
2021/06/11 04:50:02;;;;;;;13.38;11.98;;;;;;;;;;5083526;28;20745;-84
2021/06/11 04:52:28;;;;;;;13.60;11.73;;;;;;;;;;5084037;28;20420;-83
2021/06/11 04:54:55;;;;;;;14.77;11.52;;;;;;;;;;5082440;28;20400;-83
2021/06/11 04:57:21;;;;;;;12.50;10.95;;;;;;;;;;5084413;28;20884;-83
2021/06/11 04:59:48;;;;;;;13.07;11.73;;;;;;;;;;5084328;28;20465;-82
2021/06/11 05:02:15;;;;;;;13.10;10.73;;;;;;;;;;5084687;28;20392;-83
2021/06/11 05:04:42;;;;;;;13.85;11.10;;;;;;;;;;5082280;28;20400;-82
2021/06/11 05:07:10;;;;;;;12.07;10.73;;;;;;;;;;5084946;28;20439;-83
2021/06/11 05:09:36;;;;;;;12.55;11.20;;;;;;;;;;5082248;28;21034;-83
2021/06/11 05:12:03;;;;;;;13.48;10.95;;;;;;;;;;5083418;28;20420;-83
2021/06/11 05:14:30;;;;;;;11.45;10.10;;;;;;;;;;5083284;28;20401;-83
2021/06/11 05:16:56;;;;;;;12.27;11.02;;;;;;;;;;5084125;28;20429;-84
2021/06/11 05:19:22;;;;;;;15.25;11.32;;;;;;;;;;5083869;28;20565;-84
2021/06/11 05:21:50;;;;;;;12.47;11.03;;;;;;;;;;5083525;28;20982;-84
2021/06/11 05:24:17;;;;;;;12.57;10.30;;;;;;;;;;5084146;28;20577;-83
2021/06/11 05:26:43;;;;;;;12.80;10.80;;;;;;;;;;5083759;28;20407;-84
2021/06/11 05:29:09;;;;;;;11.45;10.35;;;;;;;;;;5084171;28;20866;-84
2021/06/11 05:31:36;;;;;;;12.07;10.25;;;;;;;;;;5082513;28;20480;-83
2021/06/11 05:34:02;;;;;;;12.25;10.40;;;;;;;;;;5084144;28;20450;-83
2021/06/11 05:36:28;;;;;;;10.90;9.43;;;;;;;;;;5083193;28;20419;-84
2021/06/11 05:38:56;;;;;;;11.55;9.48;;;;;;;;;;5082881;28;20407;-81
2021/06/11 05:41:23;;;;;;;13.43;11.20;;;;;;;;;;5081818;28;20413;-84
2021/06/11 05:43:51;;;;;;;14.98;11.95;;;;;;;;;;5079078;28;20764;-83
2021/06/11 05:46:19;;;;;;;13.53;12.20;;;;;;;;;;5084020;28;20421;-84
2021/06/11 05:48:46;;;;;;;15.27;12.43;;;;;;;;;;5081173;28;20487;-83
2021/06/11 05:51:13;;;;;;;15.13;12.10;;;;;;;;;;5083260;28;20418;-84
2021/06/11 05:53:40;;;;;;;13.55;12.15;;;;;;;;;;5083636;28;20396;-78
2021/06/11 05:56:09;;;;;;;13.75;11.60;;;;;;;;;;5083984;28;20400;-82
2021/06/11 05:58:36;;;;;;;13.40;12.00;;;;;;;;;;5084314;28;20494;-83
2021/06/11 06:01:03;;;;;;;15.30;12.10;;;;;;;;;;5083290;28;20398;-83
2021/06/11 06:03:30;;;;;;;17.77;12.10;;;;;;;;;;5077041;28;20411;-83
2021/06/11 06:05:57;;;;;;;14.70;13.02;;;;;;;;;;5082552;28;20408;-83
2021/06/11 06:08:23;;;;;;;15.77;13.20;;;;;;;;;;5082551;28;20879;-82
2021/06/11 06:13:32;;;;;;;16.17;12.85;;;;;;;;;;5020230;28;20507;-93
2021/06/11 06:15:59;;;;;;;15.68;12.65;;;;;;;;;;5023715;28;20463;-93
2021/06/11 06:18:25;;;;;;;13.90;12.50;;;;;;;;;;5025875;28;20412;-92
2021/06/11 06:20:52;;;;;;;15.30;13.27;;;;;;;;;;5028016;28;20405;-93
2021/06/11 06:23:18;;;;;;;14.95;13.35;;;;;;;;;;5025029;28;20416;-93
2021/06/11 06:25:45;;;;;;;17.13;13.57;;;;;;;;;;5028525;28;20404;-94
2021/06/11 06:28:11;;;;;;;15.07;13.00;;;;;;;;;;5026836;28;20433;-93
2021/06/11 06:30:39;;;;;;;15.48;13.63;;;;;;;;;;5027543;28;20421;-92
2021/06/11 06:33:06;;;;;;;14.55;13.05;;;;;;;;;;5028177;28;20428;-94
2021/06/11 06:35:33;;;;;;;15.85;12.73;;;;;;;;;;5024249;28;20420;-93
2021/06/11 06:37:59;;;;;;;15.40;13.30;;;;;;;;;;5027534;28;21288;-93
2021/06/11 06:40:26;;;;;;;15.27;13.50;;;;;;;;;;5026008;28;20761;-93
2021/06/11 06:42:52;;;;;;;14.43;12.90;;;;;;;;;;5017849;28;20405;-92
2021/06/11 06:45:19;;;;;;;14.15;12.52;;;;;;;;;;5023487;28;20474;-93
2021/06/11 06:47:48;;;;;;;13.70;12.30;;;;;;;;;;5027289;28;20441;-92
2021/06/11 06:50:19;;;;;;;13.95;12.57;;;;;;;;;;5022047;28;20441;-93
2021/06/11 06:52:45;;;;;;;14.32;12.43;;;;;;;;;;5023166;28;20855;-92
2021/06/11 06:55:13;;;;;;;12.50;11.27;;;;;;;;;;5016849;28;20416;-94
2021/06/11 06:57:40;;;;;;;14.93;11.85;;;;;;;;;;5023837;28;20417;-93
2021/06/11 07:00:08;;;;;;;13.32;12.00;;;;;;;;;;5027599;28;20405;-93
2021/06/11 07:02:34;;;;;;;13.83;11.53;;;;;;;;;;5019217;28;20494;-92
2021/06/11 07:05:04;;;;;;;13.43;11.02;;;;;;;;;;5022309;28;20430;-92
2021/06/11 07:07:31;;;;;;;13.20;10.98;;;;;;;;;;5025657;28;20452;-92
2021/06/11 07:09:57;;;;;;;11.88;10.52;;;;;;;;;;5024255;28;20506;-93
2021/06/11 07:12:26;;;;;;;12.80;10.80;;;;;;;;;;5011391;28;20441;-92
2021/06/11 07:14:53;;;;;;;13.15;11.50;;;;;;;;;;5003492;28;20784;-92
2021/06/11 07:17:19;;;;;;;12.73;11.40;;;;;;;;;;5007023;28;20559;-91
2021/06/11 07:19:46;;;;;;;12.93;11.60;;;;;;;;;;5007662;28;20895;-92
2021/06/11 07:22:14;;;;;;;14.25;12.18;;;;;;;;;;5010704;28;20412;-93
2021/06/11 07:24:40;;;;;;;14.48;12.40;;;;;;;;;;5009096;28;20446;-92
2021/06/11 07:27:08;;;;;;;18.45;13.90;;;;;;;;;;5004427;28;20417;-92
2021/06/11 07:29:42;;;;;;;17.33;14.10;;;;;;;;;;5003355;28;20421;-94
2021/06/11 07:32:08;;;;;;;15.65;14.05;;;;;;;;;;5003210;28;20433;-92
2021/06/11 07:34:35;;;;;;;15.30;13.70;;;;;;;;;;5005751;28;20494;-92
2021/06/11 07:37:02;;;;;;;18.13;13.70;;;;;;;;;;5003474;28;20410;-91
2021/06/11 07:39:30;;;;;;;15.30;13.00;;;;;;;;;;5003154;28;20455;-92
2021/06/11 07:41:57;;;;;;;14.10;12.60;;;;;;;;;;5001646;28;20891;-91
2021/06/11 07:44:24;;;;;;;14.10;12.60;;;;;;;;;;5008209;28;20444;-90
2021/06/11 07:46:50;;;;;;;16.40;13.10;;;;;;;;;;5005443;28;20461;-90
2021/06/11 07:49:17;;;;;;;17.92;13.50;;;;;;;;;;5001923;28;20894;-92
2021/06/11 07:51:44;;;;;;;15.40;13.80;;;;;;;;;;5004321;28;20512;-91
2021/06/11 07:54:11;;;;;;;15.70;12.82;;;;;;;;;;5003158;28;20418;-92
2021/06/11 07:56:39;;;;;;;13.90;12.40;;;;;;;;;;5003685;28;20752;-92
2021/06/11 07:59:06;;;;;;;13.15;11.75;;;;;;;;;;5004502;28;20436;-92
2021/06/11 08:01:33;;;;;;;13.15;11.75;;;;;;;;;;5003797;28;20493;-90
2021/06/11 08:03:59;;;;;;;12.97;11.40;;;;;;;;;;5004490;28;20411;-91
2021/06/11 08:06:26;;;;;;;13.80;11.85;;;;;;;;;;5004454;28;20465;-91
2021/06/11 08:08:52;;;;;;;13.02;10.95;;;;;;;;;;5004077;28;20415;-90
2021/06/11 08:11:19;;;;;;;13.38;11.93;;;;;;;;;;5007918;28;20410;-89
2021/06/11 08:13:47;;;;;;;13.18;11.77;;;;;;;;;;5018792;28;20447;-91
2021/06/11 08:16:13;;;;;;;14.00;12.50;;;;;;;;;;5018373;28;20969;-91
2021/06/11 08:18:40;;;;;;;14.98;12.18;;;;;;;;;;5017133;28;20417;-91
2021/06/11 08:21:07;;;;;;;12.00;10.70;;;;;;;;;;5014436;28;20416;-91
2021/06/11 08:23:33;;;;;;;13.23;12.02;;;;;;;;;;5015334;28;20405;-92
2021/06/11 08:26:00;;;;;;;13.80;12.50;;;;;;;;;;5017073;28;20419;-91
2021/06/11 08:28:26;;;;;;;13.48;11.70;;;;;;;;;;5016413;28;20415;-92
2021/06/11 08:30:54;;;;;;;14.02;12.63;;;;;;;;;;5021989;28;20762;-92
2021/06/11 08:33:21;;;;;;;13.27;12.02;;;;;;;;;;5022741;28;20421;-93
2021/06/11 08:35:48;;;;;;;13.23;10.73;;;;;;;;;;5026486;28;20415;-92
2021/06/11 08:38:14;;;;;;;11.98;10.70;;;;;;;;;;5019094;28;20409;-93
2021/06/11 08:40:44;;;;;;;12.27;10.98;;;;;;;;;;5018614;28;20494;-92
2021/06/11 08:43:11;;;;;;;13.02;11.65;;;;;;;;;;5050211;22;20407;-92
2021/06/11 08:45:38;;;;;;;11.87;10.80;;;;;;;;;;5056883;28;20408;-93
2021/06/11 08:48:07;;;;;;;13.05;11.75;;;;;;;;;;5053118;28;20441;-91
2021/06/11 08:50:34;;;;;;;14.20;11.52;;;;;;;;;;5051643;28;20466;-90
2021/06/11 08:53:03;;;;;;;12.98;11.63;;;;;;;;;;5053138;28;20418;-92
2021/06/11 08:55:31;;;;;;;13.35;11.95;;;;;;;;;;5058431;28;20425;-90
2021/06/11 08:58:14;;;;;;;14.87;13.33;;;;;;;;;;5050321;28;20454;-90
2021/06/11 09:00:42;;;;;;;14.02;12.57;;;;;;;;;;5056937;28;20394;-91
2021/06/11 09:03:12;;;;;;;12.98;11.68;;;;;;;;;;5054183;28;20456;-90
2021/06/11 09:05:40;;;;;;;15.18;13.57;;;;;;;;;;5053114;28;20427;-90
2021/06/11 09:08:20;;;;;;;11.63;10.43;;;;;;;;;;5052672;28;21244;-91
2021/06/11 09:10:49;;;;;;;12.43;11.13;;;;;;;;;;5050236;28;20461;-91
2021/06/11 09:13:24;;;;;;;11.65;10.40;;;;;;;;;;5051222;28;20418;-90
2021/06/11 09:15:50;;;;;;;11.70;9.82;;;;;;;;;;5050489;28;20535;-90
2021/06/11 09:18:23;;;;;;;11.55;10.40;;;;;;;;;;5055645;28;20950;-91
2021/06/11 09:20:50;;;;;;;10.55;9.43;;;;;;;;;;5054262;28;20903;-91
2021/06/11 09:23:18;;;;;;;9.15;8.23;;;;;;;;;;5056918;28;20767;-91
2021/06/11 09:25:48;;;;;;;10.63;9.13;;;;;;;;;;5051437;28;20449;-91
2021/06/11 09:28:16;;;;;;;8.57;7.68;;;;;;;;;;5058481;28;20874;-90
2021/06/11 09:30:51;;;;;;;5.97;5.43;;;;;;;;;;5046758;28;20892;-92
2021/06/11 09:33:43;;;;;;;7.38;6.10;;;;;;;;;;5049518;28;20427;-91
2021/06/11 09:36:56;;;;;;;6.25;5.65;;;;;;;;;;5048908;28;20440;-92
2021/06/11 09:39:46;;;;;;;8.00;6.50;;;;;;;;;;5047761;28;20786;-91
2021/06/11 09:42:16;;;;;;;6.80;6.03;;;;;;;;;;5048545;28;20463;-91
2021/06/11 09:44:51;;;;;;;7.32;6.13;;;;;;;;;;5050011;28;20406;-91
2021/06/11 09:47:33;;;;;;;7.85;7.13;;;;;;;;;;5044940;28;20405;-91
2021/06/11 09:50:10;;;;;;;7.23;6.53;;;;;;;;;;5046609;28;20948;-92
2021/06/11 09:53:06;;;;;;;10.60;9.60;;;;;;;;;;5048260;28;20433;-91
2021/06/11 09:55:36;;;;;;;8.63;7.82;;;;;;;;;;5007284;28;20415;-91
2021/06/11 09:58:11;;;;;;;7.65;6.97;;;;;;;;;;5050194;28;20403;-91
2021/06/11 10:00:41;;;;;;;7.22;6.53;;;;;;;;;;5053888;28;20451;-92
2021/06/11 10:03:16;;;;;;;7.28;6.57;;;;;;;;;;5047501;28;21465;-92
2021/06/11 10:05:45;;;;;;;6.60;6.00;;;;;;;;;;5051371;28;20410;-91
2021/06/11 10:08:27;;;;;;;6.20;5.60;;;;;;;;;;5050037;28;20407;-92
2021/06/11 10:10:56;;;;;;;6.28;5.78;;;;;;;;;;5048247;28;20402;-91
2021/06/11 10:13:24;;;;;;;6.43;5.07;;;;;;;;;;5046417;28;20410;-91
2021/06/11 10:16:02;;;;;;;5.95;5.45;;;;;;;;;;5044761;28;20426;-91
2021/06/11 10:18:31;;;;;;;5.88;5.38;;;;;;;;;;5046374;28;20426;-92
2021/06/11 10:21:02;;;;;;;5.97;5.40;;;;;;;;;;5043290;28;20452;-92
2021/06/11 10:23:32;;;;;;;6.68;5.97;;;;;;;;;;5048240;28;20827;-92
2021/06/11 10:26:03;;;;;;;7.18;5.47;;;;;;;;;;5048873;28;20433;-91
2021/06/11 10:28:33;;;;;;;6.00;4.85;;;;;;;;;;5051769;28;20403;-91
2021/06/11 10:31:01;;;;;;;5.87;5.37;;;;;;;;;;5047617;28;20410;-91
2021/06/11 10:33:59;;;;;;;5.75;5.15;;;;;;;;;;5048183;28;20485;-92
2021/06/11 10:36:40;;;;;;;6.18;5.60;;;;;;;;;;5047717;28;20954;-91
2021/06/11 10:39:25;;;;;;;5.75;5.18;;;;;;;;;;5047821;28;20406;-91
2021/06/11 10:41:57;;;;;;;8.48;7.60;;;;;;;;;;5049329;28;20732;-91
2021/06/11 10:44:31;;;;;;;6.53;5.72;;;;;;;;;;5043793;28;20443;-90
2021/06/11 10:47:28;;;;;;;6.85;6.18;;;;;;;;;;5048727;28;20950;-91
2021/06/11 10:50:31;;;;;;;7.88;7.18;;;;;;;;;;5045318;28;20411;-90
2021/06/11 10:53:10;;;;;;;7.20;6.50;;;;;;;;;;5045162;28;20920;-91
2021/06/11 10:55:45;;;;;;;10.13;9.15;;;;;;;;;;5044681;28;20516;-90
2021/06/11 10:58:29;;;;;;;9.07;7.40;;;;;;;;;;5047833;28;20410;-91
2021/06/11 11:00:56;;;;;;;7.80;7.15;;;;;;;;;;5048195;28;20906;-91
2021/06/11 11:03:30;;;;;;;7.53;6.83;;;;;;;;;;5050255;28;20399;-91
2021/06/11 11:05:57;;;;;;;6.05;5.63;;;;;;;;;;5052268;28;20409;-91
2021/06/11 11:08:52;;;;;;;7.30;6.70;;;;;;;;;;5049196;28;20422;-92
2021/06/11 11:11:45;;;;;;;6.75;6.15;;;;;;;;;;5051911;28;20450;-90
2021/06/11 11:14:39;;;;;;;8.23;7.53;;;;;;;;;;5037151;28;21196;-90
2021/06/11 11:17:05;;;;;;;7.18;6.55;;;;;;;;;;5049056;28;20449;-91
2021/06/11 11:19:45;;;;;;;10.32;9.23;;;;;;;;;;5050141;28;20412;-91
2021/06/11 11:22:23;;;;;;;7.95;7.25;;;;;;;;;;5049064;28;20925;-91
2021/06/11 11:24:52;;;;;;;7.85;7.20;;;;;;;;;;5048572;28;20401;-91
2021/06/11 11:27:18;;;;;;;8.90;8.10;;;;;;;;;;5047306;28;20430;-91
2021/06/11 11:29:45;;;;;;;8.85;7.95;;;;;;;;;;5050489;28;20396;-89
2021/06/11 11:32:11;;;;;;;11.35;10.35;;;;;;;;;;5048222;28;20788;-91
2021/06/11 11:34:38;;;;;;;9.27;8.40;;;;;;;;;;5053712;28;20505;-90
2021/06/11 11:37:05;;;;;;;10.57;9.48;;;;;;;;;;5051626;28;21060;-90
2021/06/11 11:39:31;;;;;;;9.95;9.13;;;;;;;;;;5056362;28;20444;-90
2021/06/11 11:41:59;;;;;;;9.10;8.30;;;;;;;;;;5048895;28;20414;-90
2021/06/11 11:44:26;;;;;;;8.80;8.00;;;;;;;;;;5048951;28;20424;-92
2021/06/11 11:46:54;;;;;;;8.35;7.50;;;;;;;;;;5045698;28;20922;-91
2021/06/11 11:49:22;;;;;;;8.38;7.57;;;;;;;;;;5047700;28;20458;-92
2021/06/11 11:51:50;;;;;;;8.70;7.80;;;;;;;;;;5044701;28;20471;-92
2021/06/11 11:54:18;;;;;;;9.48;8.57;;;;;;;;;;5046320;28;21031;-91
2021/06/11 11:56:44;;;;;;;8.40;7.60;;;;;;;;;;5044005;28;20404;-88
2021/06/11 11:59:12;;;;;;;8.13;7.32;;;;;;;;;;5049201;28;20515;-89
2021/06/11 12:01:40;;;;;;;8.73;7.93;;;;;;;;;;5045016;28;20401;-89
2021/06/11 12:04:27;;;;;;;8.97;8.20;;;;;;;;;;5051058;28;20843;-88
2021/06/11 12:06:54;;;;;;;8.88;7.97;;;;;;;;;;5047636;28;20495;-88
2021/06/11 12:09:20;;;;;;;8.83;7.33;;;;;;;;;;5045852;28;20406;-91
2021/06/11 12:11:47;;;;;;;10.63;9.63;;;;;;;;;;5045358;28;20420;-91
2021/06/11 12:14:15;;;;;;;8.05;7.35;;;;;;;;;;5046572;28;20408;-91
2021/06/11 12:16:41;;;;;;;8.10;7.30;;;;;;;;;;5049518;28;20434;-91
2021/06/11 12:19:08;;;;;;;8.17;7.40;;;;;;;;;;5048371;28;20412;-90
2021/06/11 12:21:35;;;;;;;7.53;6.82;;;;;;;;;;5047799;28;20406;-91
2021/06/11 12:24:02;;;;;;;8.80;7.90;;;;;;;;;;5050017;28;20442;-90
2021/06/11 12:26:29;;;;;;;9.63;8.80;;;;;;;;;;5047904;28;20485;-91
2021/06/11 12:28:59;;;;;;;9.90;8.90;;;;;;;;;;5045432;28;20406;-90
2021/06/11 12:31:28;;;;;;;10.98;9.88;;;;;;;;;;5047369;28;20404;-92
2021/06/11 12:33:56;;;;;;;11.18;9.75;;;;;;;;;;5052029;28;20411;-91
2021/06/11 12:36:23;;;;;;;8.05;7.30;;;;;;;;;;5045895;28;20411;-89
2021/06/11 12:38:50;;;;;;;8.87;8.07;;;;;;;;;;5050095;28;20405;-90
2021/06/11 12:41:17;;;;;;;11.13;9.15;;;;;;;;;;5050271;28;20442;-89
2021/06/11 12:46:31;;;;;;;9.93;9.03;;;;;;;;;;5071783;28;20401;-91
2021/06/11 12:48:58;;;;;;;9.55;8.38;;;;;;;;;;5074199;28;20775;-91
2021/06/11 12:51:25;;;;;;;9.70;8.80;;;;;;;;;;5074585;28;20403;-91
2021/06/11 12:53:52;;;;;;;6.68;5.35;;;;;;;;;;5068190;28;20480;-92
2021/06/11 12:56:20;;;;;;;7.10;5.60;;;;;;;;;;5069590;28;20947;-92
2021/06/11 12:58:47;;;;;;;12.23;6.40;;;;;;;;;;5069887;28;20431;-92
2021/06/11 13:01:13;;;;;;;7.60;6.63;;;;;;;;;;5069476;28;20899;-91
2021/06/11 13:03:41;;;;;;;12.73;6.78;;;;;;;;;;5070501;28;20784;-91
2021/06/11 13:06:08;;;;;;;7.85;7.00;;;;;;;;;;5069238;28;20406;-92
2021/06/11 13:08:35;;;;;;;10.25;7.93;;;;;;;;;;5070830;28;20480;-90
2021/06/11 13:11:02;;;;;;;10.20;9.07;;;;;;;;;;5068641;28;20433;-89
2021/06/11 13:13:29;;;;;;;11.18;9.77;;;;;;;;;;5073322;28;20420;-91
2021/06/11 13:15:56;;;;;;;14.15;11.15;;;;;;;;;;5070874;28;20409;-90
2021/06/11 13:18:23;;;;;;;17.15;12.00;;;;;;;;;;5071949;28;20410;-92
2021/06/11 13:20:52;;;;;;;17.77;12.70;;;;;;;;;;5073112;28;20441;-94
2021/06/11 13:23:19;;;;;;;17.25;13.43;;;;;;;;;;5075488;28;20941;-93
2021/06/11 13:25:45;;;;;;;15.65;12.85;;;;;;;;;;5075699;28;20898;-92
2021/06/11 13:28:12;;;;;;;13.75;12.35;;;;;;;;;;5072726;28;20410;-92
2021/06/11 13:30:42;;;;;;;14.30;12.80;;;;;;;;;;5068558;28;20433;-90
2021/06/11 13:33:09;;;;;;;7.20;6.50;;;;;;;;;;5070603;28;20420;-91
2021/06/11 13:35:36;;;;;;;7.60;5.50;;;;;;;;;;5070963;28;20408;-91
2021/06/11 13:38:06;;;;;;;6.25;5.65;;;;;;;;;;5073048;28;20430;-92
2021/06/11 13:40:34;;;;;;;7.05;5.88;;;;;;;;;;5073342;28;20406;-92
2021/06/11 13:43:01;;;;;;;7.72;5.10;;;;;;;;;;5064557;28;20408;-92
2021/06/11 13:45:28;;;;;;;6.10;5.38;;;;;;;;;;5051880;28;20423;-91
2021/06/11 13:47:54;;;;;;;7.82;6.78;;;;;;;;;;5055786;28;20434;-91
2021/06/11 13:50:23;;;;;;;7.60;6.88;;;;;;;;;;5052433;28;20424;-92
2021/06/11 13:52:49;;;;;;;9.13;7.80;;;;;;;;;;5048632;28;20504;-91
2021/06/11 13:55:18;;;;;;;9.80;8.80;;;;;;;;;;5054541;28;20406;-91
2021/06/11 13:57:45;;;;;;;10.35;9.20;;;;;;;;;;5049826;28;20422;-91
2021/06/11 14:00:13;;;;;;;12.52;9.80;;;;;;;;;;5051030;28;21063;-91
2021/06/11 14:02:40;;;;;;;12.88;10.38;;;;;;;;;;5048311;28;20849;-91
2021/06/11 14:05:08;;;;;;;14.50;10.70;;;;;;;;;;5053245;28;20422;-91
2021/06/11 14:07:35;;;;;;;13.48;11.43;;;;;;;;;;5052081;28;20406;-91
2021/06/11 14:10:01;;;;;;;14.07;12.57;;;;;;;;;;5049758;28;20843;-91
2021/06/11 14:12:30;;;;;;;14.93;13.15;;;;;;;;;;5055398;28;20475;-91
2021/06/11 14:14:56;;;;;;;15.10;13.38;;;;;;;;;;5056376;28;20790;-91
2021/06/11 14:17:24;;;;;;;15.00;13.30;;;;;;;;;;5037498;28;21401;-92
2021/06/11 14:19:50;;;;;;;15.98;14.15;;;;;;;;;;5049404;28;20418;-91
2021/06/11 14:22:17;;;;;;;15.43;13.82;;;;;;;;;;5052960;28;20398;-92
2021/06/11 14:24:44;;;;;;;15.27;13.77;;;;;;;;;;5050691;28;20412;-90
2021/06/11 14:27:12;;;;;;;17.23;14.38;;;;;;;;;;5049559;28;20894;-90
2021/06/11 14:29:41;;;;;;;17.27;15.40;;;;;;;;;;5053237;28;20398;-90
2021/06/11 14:32:08;;;;;;;17.50;15.30;;;;;;;;;;5043724;28;20652;-92
2021/06/11 14:34:35;;;;;;;16.45;14.70;;;;;;;;;;5049920;28;20420;-89
2021/06/11 14:37:01;;;;;;;29.00;17.75;;;;;;;;;;5048041;28;20791;-90
2021/06/11 14:39:28;;;;;;;19.48;16.98;;;;;;;;;;5049747;28;20422;-90
2021/06/11 14:41:55;;;;;;;20.13;18.02;;;;;;;;;;5028887;28;20524;-89
2021/06/11 14:44:23;;;;;;;20.23;18.08;;;;;;;;;;5050018;28;20770;-92
2021/06/11 14:46:51;;;;;;;20.53;18.33;;;;;;;;;;5047903;28;20488;-90
2021/06/11 14:49:18;;;;;;;20.20;18.20;;;;;;;;;;5045018;28;20494;-90